Aeroporto :
LOGIN :

Iscrizione | Disclaimer

   EN    FR    IT 

 










Sommario :    VFR   VFR Marginale   IFR   IFR Intensivo   IFR Molto Intensivo
Visibilità : 
Base nubi : 
>= 8 km
>= 3000ft
5 / 8 km
1000 / 3000 ft
1500m / 5 km
500 / 1000 ft
800 / 1500m
200 / 500 ft
< 800m
< 200 ft
Simboli :   Temporali  Nebbia  Neve Forte  Precipitazioni Forti  Vento > 20 kt
SIGMETs :   Varie  Temporali  Ghiacco  Turbolenza  Onda orograficha  Ceneri Vulcaniche






- Altitudine del aeroporto : 285 ft
- Codice IATA : GOZ


LBGO - Gorna Oryahovitsa

ULTIMO METAR :
  • 072330Z AUTO 26002KT 9999 NCD M01/M03 Q1032

METARs OBSOLETI :
  • 072300Z AUTO 27003KT 9999 NCD M00/M03 Q1032
  • 072230Z AUTO 25003KT 9999 NCD 01/M03 Q1032
  • 072200Z AUTO 00000KT 9999 NCD 01/M03 Q1032
  • 072130Z AUTO 00000KT 9999 NCD 02/M03 Q1032
  • 072100Z AUTO 00000KT 9999 NCD 04/M06 Q1032

TAF TAF LBGO
Valido dal 08 a 00 ore il 09 a 00 ore UTC


072300Z 0800/0824 VRB04KT CAVOK
BECMG 0810/0812 01010KT
BECMG 0818/0820 VRB04KT



MetMap, La meteo Aeronautica in un colpo d'occhio ! - Copyright ORBIFLY Dicembre 2007 - Disclaimer

ORBIFLY MET'MAP TEAM :

Programmazione e sviluppo : Alexandra Zaïnal
Concezione : Baudouin d'Aumeries
Aiuto per la programmazione : Marc-Olivier Méhu
Supporto tecnico e logistico : Manuel Goepfert
Aiuto per la traduzione : Arnaldo La Scala

Contatto : metmap@orbifly.com




FONTI E CREDITI :

   NOAA